sensor_id;sensor_type;location;lat;lon;timestamp;temperature;humidity
19870;DHT22;10097;50.862;4.696;2023-01-15T00:01:50;8.90;99.90
19870;DHT22;10097;50.862;4.696;2023-01-15T00:04:16;8.90;99.90
19870;DHT22;10097;50.862;4.696;2023-01-15T00:06:44;8.80;99.90
19870;DHT22;10097;50.862;4.696;2023-01-15T00:09:13;8.80;99.90
19870;DHT22;10097;50.862;4.696;2023-01-15T00:11:39;8.90;99.90
19870;DHT22;10097;50.862;4.696;2023-01-15T00:14:08;8.90;99.90
19870;DHT22;10097;50.862;4.696;2023-01-15T00:16:39;8.90;99.90
19870;DHT22;10097;50.862;4.696;2023-01-15T00:19:05;8.90;99.90
19870;DHT22;10097;50.862;4.696;2023-01-15T00:21:33;8.90;99.90
19870;DHT22;10097;50.862;4.696;2023-01-15T00:23:59;9.00;99.90
19870;DHT22;10097;50.862;4.696;2023-01-15T00:26:46;9.10;99.90
19870;DHT22;10097;50.862;4.696;2023-01-15T00:29:33;9.10;99.90
19870;DHT22;10097;50.862;4.696;2023-01-15T00:32:06;9.00;99.90
19870;DHT22;10097;50.862;4.696;2023-01-15T00:34:35;9.10;99.90
19870;DHT22;10097;50.862;4.696;2023-01-15T00:37:04;9.20;99.90
19870;DHT22;10097;50.862;4.696;2023-01-15T00:39:30;9.30;99.90
19870;DHT22;10097;50.862;4.696;2023-01-15T00:41:55;9.30;99.90
19870;DHT22;10097;50.862;4.696;2023-01-15T00:44:21;9.20;99.90
19870;DHT22;10097;50.862;4.696;2023-01-15T00:46:47;9.10;99.90
19870;DHT22;10097;50.862;4.696;2023-01-15T00:49:16;9.10;99.90
19870;DHT22;10097;50.862;4.696;2023-01-15T00:51:41;9.20;99.90
19870;DHT22;10097;50.862;4.696;2023-01-15T00:54:11;9.20;99.90
19870;DHT22;10097;50.862;4.696;2023-01-15T00:56:39;9.30;99.90
19870;DHT22;10097;50.862;4.696;2023-01-15T00:59:05;9.20;99.90
19870;DHT22;10097;50.862;4.696;2023-01-15T01:01:31;9.30;99.90
19870;DHT22;10097;50.862;4.696;2023-01-15T01:03:57;9.10;99.90
19870;DHT22;10097;50.862;4.696;2023-01-15T01:06:27;9.00;99.90
19870;DHT22;10097;50.862;4.696;2023-01-15T01:08:53;9.10;99.90
19870;DHT22;10097;50.862;4.696;2023-01-15T01:11:21;9.10;99.90
19870;DHT22;10097;50.862;4.696;2023-01-15T01:13:57;9.10;99.90
19870;DHT22;10097;50.862;4.696;2023-01-15T01:18:58;9.00;99.90
19870;DHT22;10097;50.862;4.696;2023-01-15T01:21:35;9.10;99.90
19870;DHT22;10097;50.862;4.696;2023-01-15T01:24:10;9.10;99.90
19870;DHT22;10097;50.862;4.696;2023-01-15T01:26:36;9.10;99.90
19870;DHT22;10097;50.862;4.696;2023-01-15T01:29:05;9.20;99.90
19870;DHT22;10097;50.862;4.696;2023-01-15T01:31:31;9.20;99.90
19870;DHT22;10097;50.862;4.696;2023-01-15T01:33:59;9.00;99.90
19870;DHT22;10097;50.862;4.696;2023-01-15T01:36:30;9.00;99.90
19870;DHT22;10097;50.862;4.696;2023-01-15T01:39:06;9.00;99.90
19870;DHT22;10097;50.862;4.696;2023-01-15T01:41:33;9.10;99.90
19870;DHT22;10097;50.862;4.696;2023-01-15T01:46:52;9.10;99.90
19870;DHT22;10097;50.862;4.696;2023-01-15T01:49:18;9.10;99.90
19870;DHT22;10097;50.862;4.696;2023-01-15T01:51:59;9.00;99.90
19870;DHT22;10097;50.862;4.696;2023-01-15T01:54:31;9.10;99.90
19870;DHT22;10097;50.862;4.696;2023-01-15T01:57:08;9.00;99.90
19870;DHT22;10097;50.862;4.696;2023-01-15T01:59:35;9.00;99.90
19870;DHT22;10097;50.862;4.696;2023-01-15T02:02:12;9.00;99.90
19870;DHT22;10097;50.862;4.696;2023-01-15T02:04:39;9.00;99.90
19870;DHT22;10097;50.862;4.696;2023-01-15T02:07:06;9.00;99.90
19870;DHT22;10097;50.862;4.696;2023-01-15T02:09:34;8.90;99.90
19870;DHT22;10097;50.862;4.696;2023-01-15T02:12:16;8.80;99.90
19870;DHT22;10097;50.862;4.696;2023-01-15T02:15:14;8.80;99.90
19870;DHT22;10097;50.862;4.696;2023-01-15T02:20:44;8.90;99.90
19870;DHT22;10097;50.862;4.696;2023-01-15T02:26:19;9.00;99.90
19870;DHT22;10097;50.862;4.696;2023-01-15T02:28:53;9.00;99.90
19870;DHT22;10097;50.862;4.696;2023-01-15T02:31:24;8.90;99.90
19870;DHT22;10097;50.862;4.696;2023-01-15T02:33:59;9.00;99.90
19870;DHT22;10097;50.862;4.696;2023-01-15T02:36:38;8.90;99.90
19870;DHT22;10097;50.862;4.696;2023-01-15T02:39:15;8.80;99.90
19870;DHT22;10097;50.862;4.696;2023-01-15T02:41:48;8.80;99.90
19870;DHT22;10097;50.862;4.696;2023-01-15T02:44:18;8.80;99.90
19870;DHT22;10097;50.862;4.696;2023-01-15T02:46:46;8.90;99.90
19870;DHT22;10097;50.862;4.696;2023-01-15T02:49:17;8.80;99.90
19870;DHT22;10097;50.862;4.696;2023-01-15T02:51:53;8.70;99.90
19870;DHT22;10097;50.862;4.696;2023-01-15T02:54:27;8.70;99.90
19870;DHT22;10097;50.862;4.696;2023-01-15T02:56:57;8.60;99.90
19870;DHT22;10097;50.862;4.696;2023-01-15T02:59:33;8.70;99.90
19870;DHT22;10097;50.862;4.696;2023-01-15T03:02:08;8.60;99.90
19870;DHT22;10097;50.862;4.696;2023-01-15T03:04:52;8.70;99.90
19870;DHT22;10097;50.862;4.696;2023-01-15T03:07:34;8.60;99.90
19870;DHT22;10097;50.862;4.696;2023-01-15T03:10:01;8.70;99.90
19870;DHT22;10097;50.862;4.696;2023-01-15T03:12:29;8.60;99.90
19870;DHT22;10097;50.862;4.696;2023-01-15T03:15:19;8.60;99.90
19870;DHT22;10097;50.862;4.696;2023-01-15T03:18:10;8.60;99.90
19870;DHT22;10097;50.862;4.696;2023-01-15T03:20:42;8.50;99.90
19870;DHT22;10097;50.862;4.696;2023-01-15T03:23:16;8.40;99.90
19870;DHT22;10097;50.862;4.696;2023-01-15T03:25:47;8.30;99.90
19870;DHT22;10097;50.862;4.696;2023-01-15T03:28:19;8.30;99.90
19870;DHT22;10097;50.862;4.696;2023-01-15T03:30:53;8.40;99.90
19870;DHT22;10097;50.862;4.696;2023-01-15T03:33:21;8.50;99.90
19870;DHT22;10097;50.862;4.696;2023-01-15T03:35:51;8.50;99.90
19870;DHT22;10097;50.862;4.696;2023-01-15T03:38:22;8.50;99.90
19870;DHT22;10097;50.862;4.696;2023-01-15T03:49:46;8.40;99.90
19870;DHT22;10097;50.862;4.696;2023-01-15T03:52:30;8.30;99.90
19870;DHT22;10097;50.862;4.696;2023-01-15T04:02:55;8.10;99.90
19870;DHT22;10097;50.862;4.696;2023-01-15T04:05:23;8.20;99.90
19870;DHT22;10097;50.862;4.696;2023-01-15T04:07:50;8.30;99.90
19870;DHT22;10097;50.862;4.696;2023-01-15T04:10:26;8.30;99.90
19870;DHT22;10097;50.862;4.696;2023-01-15T04:12:54;8.20;99.90
19870;DHT22;10097;50.862;4.696;2023-01-15T04:15:23;8.10;99.90
19870;DHT22;10097;50.862;4.696;2023-01-15T04:17:51;8.10;99.90
19870;DHT22;10097;50.862;4.696;2023-01-15T04:20:22;8.10;99.90
19870;DHT22;10097;50.862;4.696;2023-01-15T04:22:53;8.00;99.90
19870;DHT22;10097;50.862;4.696;2023-01-15T04:25:19;7.90;99.90
19870;DHT22;10097;50.862;4.696;2023-01-15T04:27:47;7.90;99.90
19870;DHT22;10097;50.862;4.696;2023-01-15T04:30:15;8.00;99.90
19870;DHT22;10097;50.862;4.696;2023-01-15T04:32:42;7.90;99.90
19870;DHT22;10097;50.862;4.696;2023-01-15T04:35:13;7.80;99.90
19870;DHT22;10097;50.862;4.696;2023-01-15T04:37:38;7.90;99.90
19870;DHT22;10097;50.862;4.696;2023-01-15T04:40:05;7.90;99.90
19870;DHT22;10097;50.862;4.696;2023-01-15T04:42:33;7.90;99.90
19870;DHT22;10097;50.862;4.696;2023-01-15T04:45:20;7.90;99.90
19870;DHT22;10097;50.862;4.696;2023-01-15T04:47:45;7.90;99.90
19870;DHT22;10097;50.862;4.696;2023-01-15T04:50:11;7.90;99.90
19870;DHT22;10097;50.862;4.696;2023-01-15T04:52:37;7.90;99.90
19870;DHT22;10097;50.862;4.696;2023-01-15T04:55:07;7.90;99.90
19870;DHT22;10097;50.862;4.696;2023-01-15T04:57:33;7.80;99.90
19870;DHT22;10097;50.862;4.696;2023-01-15T05:00:01;7.80;99.90
19870;DHT22;10097;50.862;4.696;2023-01-15T05:02:27;7.80;99.90
19870;DHT22;10097;50.862;4.696;2023-01-15T05:04:57;7.80;99.90
19870;DHT22;10097;50.862;4.696;2023-01-15T05:07:25;7.80;99.90
19870;DHT22;10097;50.862;4.696;2023-01-15T05:09:51;7.90;99.90
19870;DHT22;10097;50.862;4.696;2023-01-15T05:12:19;7.90;99.90
19870;DHT22;10097;50.862;4.696;2023-01-15T05:14:47;7.90;99.90
19870;DHT22;10097;50.862;4.696;2023-01-15T05:17:13;7.80;99.90
19870;DHT22;10097;50.862;4.696;2023-01-15T05:19:39;7.80;99.90
19870;DHT22;10097;50.862;4.696;2023-01-15T05:22:04;7.80;99.90
19870;DHT22;10097;50.862;4.696;2023-01-15T05:24:33;7.80;99.90
19870;DHT22;10097;50.862;4.696;2023-01-15T05:26:58;7.80;99.90
19870;DHT22;10097;50.862;4.696;2023-01-15T05:29:24;7.80;99.90
19870;DHT22;10097;50.862;4.696;2023-01-15T05:31:54;7.70;99.90
19870;DHT22;10097;50.862;4.696;2023-01-15T05:34:20;7.60;99.90
19870;DHT22;10097;50.862;4.696;2023-01-15T05:36:46;7.70;99.90
19870;DHT22;10097;50.862;4.696;2023-01-15T05:39:12;7.70;99.90
19870;DHT22;10097;50.862;4.696;2023-01-15T05:41:44;7.70;99.90
19870;DHT22;10097;50.862;4.696;2023-01-15T05:44:26;7.60;99.90
19870;DHT22;10097;50.862;4.696;2023-01-15T05:47:00;7.60;99.90
19870;DHT22;10097;50.862;4.696;2023-01-15T05:49:31;7.50;99.90
19870;DHT22;10097;50.862;4.696;2023-01-15T05:51:58;7.50;99.90
19870;DHT22;10097;50.862;4.696;2023-01-15T05:54:29;7.40;99.90
19870;DHT22;10097;50.862;4.696;2023-01-15T05:56:58;7.30;99.90
19870;DHT22;10097;50.862;4.696;2023-01-15T05:59:25;7.20;99.90
19870;DHT22;10097;50.862;4.696;2023-01-15T06:02:02;7.30;99.90
19870;DHT22;10097;50.862;4.696;2023-01-15T06:04:31;7.30;99.90
19870;DHT22;10097;50.862;4.696;2023-01-15T06:06:57;7.30;99.90
19870;DHT22;10097;50.862;4.696;2023-01-15T06:09:23;7.40;99.90
19870;DHT22;10097;50.862;4.696;2023-01-15T06:11:49;7.40;99.90
19870;DHT22;10097;50.862;4.696;2023-01-15T06:14:15;7.20;99.90
19870;DHT22;10097;50.862;4.696;2023-01-15T06:16:41;7.00;99.90
19870;DHT22;10097;50.862;4.696;2023-01-15T06:19:08;6.80;99.90
19870;DHT22;10097;50.862;4.696;2023-01-15T06:21:34;6.60;99.90
19870;DHT22;10097;50.862;4.696;2023-01-15T06:24:03;6.40;99.90
19870;DHT22;10097;50.862;4.696;2023-01-15T06:26:28;6.30;99.90
19870;DHT22;10097;50.862;4.696;2023-01-15T06:28:54;6.20;99.90
19870;DHT22;10097;50.862;4.696;2023-01-15T06:31:22;6.20;99.90
19870;DHT22;10097;50.862;4.696;2023-01-15T06:33:48;6.20;99.90
19870;DHT22;10097;50.862;4.696;2023-01-15T06:36:19;6.20;99.90
19870;DHT22;10097;50.862;4.696;2023-01-15T06:38:49;6.00;99.90
19870;DHT22;10097;50.862;4.696;2023-01-15T06:41:20;5.90;99.90
19870;DHT22;10097;50.862;4.696;2023-01-15T06:44:05;5.80;99.90
19870;DHT22;10097;50.862;4.696;2023-01-15T06:46:50;5.70;99.90
19870;DHT22;10097;50.862;4.696;2023-01-15T06:49:35;5.60;99.90
19870;DHT22;10097;50.862;4.696;2023-01-15T06:52:02;5.60;99.90
19870;DHT22;10097;50.862;4.696;2023-01-15T06:54:28;5.70;99.90
19870;DHT22;10097;50.862;4.696;2023-01-15T06:56:53;5.70;99.90
19870;DHT22;10097;50.862;4.696;2023-01-15T06:59:19;5.70;99.90
19870;DHT22;10097;50.862;4.696;2023-01-15T07:01:45;5.80;99.90
19870;DHT22;10097;50.862;4.696;2023-01-15T07:04:11;5.70;99.90
19870;DHT22;10097;50.862;4.696;2023-01-15T07:06:37;5.80;99.90
19870;DHT22;10097;50.862;4.696;2023-01-15T07:09:08;5.90;99.90
19870;DHT22;10097;50.862;4.696;2023-01-15T07:11:36;5.90;99.90
19870;DHT22;10097;50.862;4.696;2023-01-15T07:14:25;5.80;99.90
19870;DHT22;10097;50.862;4.696;2023-01-15T07:16:52;5.80;99.90
19870;DHT22;10097;50.862;4.696;2023-01-15T07:19:20;5.80;99.90
19870;DHT22;10097;50.862;4.696;2023-01-15T07:21:46;5.90;99.90
19870;DHT22;10097;50.862;4.696;2023-01-15T07:24:16;6.00;99.90
19870;DHT22;10097;50.862;4.696;2023-01-15T07:26:42;6.00;99.90
19870;DHT22;10097;50.862;4.696;2023-01-15T07:29:11;5.90;99.90
19870;DHT22;10097;50.862;4.696;2023-01-15T07:31:39;5.90;99.90
19870;DHT22;10097;50.862;4.696;2023-01-15T07:34:07;5.80;99.90
19870;DHT22;10097;50.862;4.696;2023-01-15T07:36:34;5.80;99.90
19870;DHT22;10097;50.862;4.696;2023-01-15T07:38:59;5.90;99.90
19870;DHT22;10097;50.862;4.696;2023-01-15T07:41:29;5.90;99.90
19870;DHT22;10097;50.862;4.696;2023-01-15T07:44:14;5.80;99.90
19870;DHT22;10097;50.862;4.696;2023-01-15T07:46:58;5.80;99.90
19870;DHT22;10097;50.862;4.696;2023-01-15T07:49:42;5.80;99.90
19870;DHT22;10097;50.862;4.696;2023-01-15T07:52:16;5.70;99.90
19870;DHT22;10097;50.862;4.696;2023-01-15T07:54:43;5.70;99.90
19870;DHT22;10097;50.862;4.696;2023-01-15T07:57:09;5.80;99.90
19870;DHT22;10097;50.862;4.696;2023-01-15T07:59:37;5.90;99.90
19870;DHT22;10097;50.862;4.696;2023-01-15T08:02:03;5.90;99.90
19870;DHT22;10097;50.862;4.696;2023-01-15T08:04:29;5.90;99.90
19870;DHT22;10097;50.862;4.696;2023-01-15T08:06:55;5.90;99.90
19870;DHT22;10097;50.862;4.696;2023-01-15T08:09:20;5.90;99.90
19870;DHT22;10097;50.862;4.696;2023-01-15T08:11:46;5.90;99.90
19870;DHT22;10097;50.862;4.696;2023-01-15T08:14:30;5.90;99.90
19870;DHT22;10097;50.862;4.696;2023-01-15T08:17:14;5.90;99.90
19870;DHT22;10097;50.862;4.696;2023-01-15T08:19:39;5.90;99.90
19870;DHT22;10097;50.862;4.696;2023-01-15T08:22:05;5.90;99.90
19870;DHT22;10097;50.862;4.696;2023-01-15T08:24:31;5.80;99.90
19870;DHT22;10097;50.862;4.696;2023-01-15T08:26:56;5.80;99.90
19870;DHT22;10097;50.862;4.696;2023-01-15T08:29:22;5.80;99.90
19870;DHT22;10097;50.862;4.696;2023-01-15T08:31:48;5.80;99.90
19870;DHT22;10097;50.862;4.696;2023-01-15T08:34:16;5.90;99.90
19870;DHT22;10097;50.862;4.696;2023-01-15T08:36:44;5.90;99.90
19870;DHT22;10097;50.862;4.696;2023-01-15T08:39:12;5.90;99.90
19870;DHT22;10097;50.862;4.696;2023-01-15T08:41:38;6.00;99.90
19870;DHT22;10097;50.862;4.696;2023-01-15T08:44:09;6.00;99.90
19870;DHT22;10097;50.862;4.696;2023-01-15T08:46:34;6.00;99.90
19870;DHT22;10097;50.862;4.696;2023-01-15T08:49:00;6.00;99.90
19870;DHT22;10097;50.862;4.696;2023-01-15T08:51:26;6.00;99.90
19870;DHT22;10097;50.862;4.696;2023-01-15T08:53:52;6.00;99.90
19870;DHT22;10097;50.862;4.696;2023-01-15T08:56:18;6.10;99.90
19870;DHT22;10097;50.862;4.696;2023-01-15T08:58:45;6.10;99.90
19870;DHT22;10097;50.862;4.696;2023-01-15T09:01:12;6.10;99.90
19870;DHT22;10097;50.862;4.696;2023-01-15T09:03:44;6.10;99.90
19870;DHT22;10097;50.862;4.696;2023-01-15T09:06:10;6.20;99.90
19870;DHT22;10097;50.862;4.696;2023-01-15T09:08:38;6.20;99.90
19870;DHT22;10097;50.862;4.696;2023-01-15T09:11:06;6.30;99.90
19870;DHT22;10097;50.862;4.696;2023-01-15T09:13:35;6.30;99.90
19870;DHT22;10097;50.862;4.696;2023-01-15T09:16:04;6.40;99.90
19870;DHT22;10097;50.862;4.696;2023-01-15T09:18:30;6.30;99.90
19870;DHT22;10097;50.862;4.696;2023-01-15T09:20:56;6.30;99.90
19870;DHT22;10097;50.862;4.696;2023-01-15T09:23:22;6.40;99.90
19870;DHT22;10097;50.862;4.696;2023-01-15T09:25:58;6.30;99.90
19870;DHT22;10097;50.862;4.696;2023-01-15T09:28:26;6.30;99.90
19870;DHT22;10097;50.862;4.696;2023-01-15T09:30:54;6.40;99.90
19870;DHT22;10097;50.862;4.696;2023-01-15T09:33:20;6.40;99.90
19870;DHT22;10097;50.862;4.696;2023-01-15T09:35:46;6.40;99.90
19870;DHT22;10097;50.862;4.696;2023-01-15T09:38:14;6.30;99.90
19870;DHT22;10097;50.862;4.696;2023-01-15T09:40:54;6.40;99.90
19870;DHT22;10097;50.862;4.696;2023-01-15T09:46:20;6.60;99.90
19870;DHT22;10097;50.862;4.696;2023-01-15T09:49:04;6.70;99.90
19870;DHT22;10097;50.862;4.696;2023-01-15T09:57:01;6.90;99.90
19870;DHT22;10097;50.862;4.696;2023-01-15T09:59:34;6.90;99.90
19870;DHT22;10097;50.862;4.696;2023-01-15T10:02:11;7.00;99.90
19870;DHT22;10097;50.862;4.696;2023-01-15T10:04:46;7.00;99.90
19870;DHT22;10097;50.862;4.696;2023-01-15T10:07:29;6.90;99.90
19870;DHT22;10097;50.862;4.696;2023-01-15T10:10:11;6.80;99.90
19870;DHT22;10097;50.862;4.696;2023-01-15T10:12:56;6.80;99.90
19870;DHT22;10097;50.862;4.696;2023-01-15T10:17:51;6.90;99.90
19870;DHT22;10097;50.862;4.696;2023-01-15T10:26:01;6.80;99.90
19870;DHT22;10097;50.862;4.696;2023-01-15T10:28:29;6.70;99.90
19870;DHT22;10097;50.862;4.696;2023-01-15T10:31:01;6.70;99.90
19870;DHT22;10097;50.862;4.696;2023-01-15T10:33:39;6.70;99.90
19870;DHT22;10097;50.862;4.696;2023-01-15T10:36:11;6.70;99.90
19870;DHT22;10097;50.862;4.696;2023-01-15T10:41:40;6.70;99.90
19870;DHT22;10097;50.862;4.696;2023-01-15T10:46:36;6.50;99.90
19870;DHT22;10097;50.862;4.696;2023-01-15T10:49:11;6.40;99.90
19870;DHT22;10097;50.862;4.696;2023-01-15T10:51:49;6.40;99.90
19870;DHT22;10097;50.862;4.696;2023-01-15T10:54:39;6.30;99.90
19870;DHT22;10097;50.862;4.696;2023-01-15T10:57:44;6.40;99.90
19870;DHT22;10097;50.862;4.696;2023-01-15T11:00:13;6.50;99.90
19870;DHT22;10097;50.862;4.696;2023-01-15T11:02:40;6.60;99.90
19870;DHT22;10097;50.862;4.696;2023-01-15T11:05:15;6.70;99.90
19870;DHT22;10097;50.862;4.696;2023-01-15T11:07:46;6.90;99.90
19870;DHT22;10097;50.862;4.696;2023-01-15T11:10:14;6.90;99.90
19870;DHT22;10097;50.862;4.696;2023-01-15T11:12:52;7.00;99.90
19870;DHT22;10097;50.862;4.696;2023-01-15T11:15:37;7.20;99.90
19870;DHT22;10097;50.862;4.696;2023-01-15T11:18:27;7.20;99.90
19870;DHT22;10097;50.862;4.696;2023-01-15T11:21:18;7.40;99.90
19870;DHT22;10097;50.862;4.696;2023-01-15T11:23:45;7.50;99.90
19870;DHT22;10097;50.862;4.696;2023-01-15T11:26:23;7.60;99.90
19870;DHT22;10097;50.862;4.696;2023-01-15T11:28:51;7.80;99.90
19870;DHT22;10097;50.862;4.696;2023-01-15T11:31:17;7.90;99.90
19870;DHT22;10097;50.862;4.696;2023-01-15T11:34:05;8.00;99.90
19870;DHT22;10097;50.862;4.696;2023-01-15T11:36:30;7.90;99.90
19870;DHT22;10097;50.862;4.696;2023-01-15T11:38:56;7.90;99.90
19870;DHT22;10097;50.862;4.696;2023-01-15T11:43:58;7.70;99.90
19870;DHT22;10097;50.862;4.696;2023-01-15T11:46:45;7.70;99.90
19870;DHT22;10097;50.862;4.696;2023-01-15T11:49:29;7.80;99.90
19870;DHT22;10097;50.862;4.696;2023-01-15T11:52:18;7.80;99.90
19870;DHT22;10097;50.862;4.696;2023-01-15T11:54:50;7.90;99.90
19870;DHT22;10097;50.862;4.696;2023-01-15T11:57:29;7.80;99.90
19870;DHT22;10097;50.862;4.696;2023-01-15T11:59:56;7.90;99.90
19870;DHT22;10097;50.862;4.696;2023-01-15T12:02:32;8.10;99.90
19870;DHT22;10097;50.862;4.696;2023-01-15T12:05:24;8.20;99.90
19870;DHT22;10097;50.862;4.696;2023-01-15T12:07:57;8.50;99.90
19870;DHT22;10097;50.862;4.696;2023-01-15T12:10:25;8.70;99.90
19870;DHT22;10097;50.862;4.696;2023-01-15T12:13:38;8.80;99.90
19870;DHT22;10097;50.862;4.696;2023-01-15T12:18:57;8.60;99.90
19870;DHT22;10097;50.862;4.696;2023-01-15T12:21:51;8.50;99.90
19870;DHT22;10097;50.862;4.696;2023-01-15T12:27:21;8.40;99.90
19870;DHT22;10097;50.862;4.696;2023-01-15T12:29:59;8.30;99.90
19870;DHT22;10097;50.862;4.696;2023-01-15T12:32:34;8.50;99.90
19870;DHT22;10097;50.862;4.696;2023-01-15T12:35:14;8.60;99.90
19870;DHT22;10097;50.862;4.696;2023-01-15T12:37:51;8.60;99.90
19870;DHT22;10097;50.862;4.696;2023-01-15T12:40:30;8.50;99.90
19870;DHT22;10097;50.862;4.696;2023-01-15T12:42:58;8.50;99.90
19870;DHT22;10097;50.862;4.696;2023-01-15T12:45:49;8.40;99.90
19870;DHT22;10097;50.862;4.696;2023-01-15T12:48:26;8.40;99.90
19870;DHT22;10097;50.862;4.696;2023-01-15T12:50:56;8.20;99.90
19870;DHT22;10097;50.862;4.696;2023-01-15T12:56:13;8.10;99.90
19870;DHT22;10097;50.862;4.696;2023-01-15T12:58:51;8.20;99.90
19870;DHT22;10097;50.862;4.696;2023-01-15T13:06:46;8.40;99.90
19870;DHT22;10097;50.862;4.696;2023-01-15T13:09:47;8.60;99.90
19870;DHT22;10097;50.862;4.696;2023-01-15T13:12:16;8.90;99.90
19870;DHT22;10097;50.862;4.696;2023-01-15T13:14:42;8.90;99.90
19870;DHT22;10097;50.862;4.696;2023-01-15T13:34:01;8.50;99.90
19870;DHT22;10097;50.862;4.696;2023-01-15T13:36:35;8.50;99.90
19870;DHT22;10097;50.862;4.696;2023-01-15T13:39:06;8.40;99.90
19870;DHT22;10097;50.862;4.696;2023-01-15T13:41:39;8.40;99.90
19870;DHT22;10097;50.862;4.696;2023-01-15T13:44:25;8.30;99.90
19870;DHT22;10097;50.862;4.696;2023-01-15T13:47:08;8.20;99.90
19870;DHT22;10097;50.862;4.696;2023-01-15T13:49:39;8.30;99.90
19870;DHT22;10097;50.862;4.696;2023-01-15T13:52:17;8.30;99.90
19870;DHT22;10097;50.862;4.696;2023-01-15T13:54:44;8.40;99.90
19870;DHT22;10097;50.862;4.696;2023-01-15T13:57:33;8.40;99.90
19870;DHT22;10097;50.862;4.696;2023-01-15T14:00:04;8.40;99.90
19870;DHT22;10097;50.862;4.696;2023-01-15T14:02:33;8.40;99.90
19870;DHT22;10097;50.862;4.696;2023-01-15T14:05:00;8.30;99.90
19870;DHT22;10097;50.862;4.696;2023-01-15T14:07:36;8.20;99.90
19870;DHT22;10097;50.862;4.696;2023-01-15T14:10:36;8.00;99.90
19870;DHT22;10097;50.862;4.696;2023-01-15T14:24:49;7.70;99.90
19870;DHT22;10097;50.862;4.696;2023-01-15T14:34:03;7.10;99.90
19870;DHT22;10097;50.862;4.696;2023-01-15T14:36:22;7.00;99.90
19870;DHT22;10097;50.862;4.696;2023-01-15T14:38:59;7.00;99.90
19870;DHT22;10097;50.862;4.696;2023-01-15T14:41:31;7.00;99.90
19870;DHT22;10097;50.862;4.696;2023-01-15T14:43:59;7.10;99.90
19870;DHT22;10097;50.862;4.696;2023-01-15T14:46:31;7.10;99.90
19870;DHT22;10097;50.862;4.696;2023-01-15T14:49:03;7.10;99.90
19870;DHT22;10097;50.862;4.696;2023-01-15T14:51:35;7.10;99.90
19870;DHT22;10097;50.862;4.696;2023-01-15T14:54:14;7.00;99.90
19870;DHT22;10097;50.862;4.696;2023-01-15T14:56:47;7.00;99.90
19870;DHT22;10097;50.862;4.696;2023-01-15T14:59:19;7.10;99.90
19870;DHT22;10097;50.862;4.696;2023-01-15T15:01:58;7.10;99.90
19870;DHT22;10097;50.862;4.696;2023-01-15T15:07:11;7.10;99.90
19870;DHT22;10097;50.862;4.696;2023-01-15T15:16:03;7.10;99.90
19870;DHT22;10097;50.862;4.696;2023-01-15T15:18:13;7.10;99.90
19870;DHT22;10097;50.862;4.696;2023-01-15T15:21:15;7.00;99.90
19870;DHT22;10097;50.862;4.696;2023-01-15T15:23:48;7.00;99.90
19870;DHT22;10097;50.862;4.696;2023-01-15T15:26:24;6.90;99.90
19870;DHT22;10097;50.862;4.696;2023-01-15T15:29:04;6.80;99.90
19870;DHT22;10097;50.862;4.696;2023-01-15T15:34:26;6.80;99.90
19870;DHT22;10097;50.862;4.696;2023-01-15T15:36:53;6.90;99.90
19870;DHT22;10097;50.862;4.696;2023-01-15T15:39:40;6.90;99.90
19870;DHT22;10097;50.862;4.696;2023-01-15T15:42:20;6.90;99.90
19870;DHT22;10097;50.862;4.696;2023-01-15T15:45:19;6.80;99.90
19870;DHT22;10097;50.862;4.696;2023-01-15T15:50:55;6.80;99.90
19870;DHT22;10097;50.862;4.696;2023-01-15T15:53:24;6.80;99.90
19870;DHT22;10097;50.862;4.696;2023-01-15T15:55:50;6.70;99.90
19870;DHT22;10097;50.862;4.696;2023-01-15T15:58:23;6.70;99.90
19870;DHT22;10097;50.862;4.696;2023-01-15T16:00:50;6.70;99.90
19870;DHT22;10097;50.862;4.696;2023-01-15T16:03:23;6.70;99.90
19870;DHT22;10097;50.862;4.696;2023-01-15T16:05:59;6.70;99.90
19870;DHT22;10097;50.862;4.696;2023-01-15T16:08:29;6.70;99.90
19870;DHT22;10097;50.862;4.696;2023-01-15T16:11:01;6.70;99.90
19870;DHT22;10097;50.862;4.696;2023-01-15T16:13:40;6.80;99.90
19870;DHT22;10097;50.862;4.696;2023-01-15T16:16:08;6.80;99.90
19870;DHT22;10097;50.862;4.696;2023-01-15T16:18:42;6.90;99.90
19870;DHT22;10097;50.862;4.696;2023-01-15T16:23:56;6.90;99.90
19870;DHT22;10097;50.862;4.696;2023-01-15T16:29:03;6.70;99.90
19870;DHT22;10097;50.862;4.696;2023-01-15T16:31:36;6.60;99.90
19870;DHT22;10097;50.862;4.696;2023-01-15T16:34:03;6.50;99.90
19870;DHT22;10097;50.862;4.696;2023-01-15T16:36:37;6.50;99.90
19870;DHT22;10097;50.862;4.696;2023-01-15T16:39:04;6.50;99.90
19870;DHT22;10097;50.862;4.696;2023-01-15T16:41:37;6.50;99.90
19870;DHT22;10097;50.862;4.696;2023-01-15T16:44:05;6.50;99.90
19870;DHT22;10097;50.862;4.696;2023-01-15T16:46:53;6.60;99.90
19870;DHT22;10097;50.862;4.696;2023-01-15T16:51:53;6.60;99.90
19870;DHT22;10097;50.862;4.696;2023-01-15T16:56:54;6.40;99.90
19870;DHT22;10097;50.862;4.696;2023-01-15T17:02:15;6.30;99.90
19870;DHT22;10097;50.862;4.696;2023-01-15T17:04:44;6.30;99.90
19870;DHT22;10097;50.862;4.696;2023-01-15T17:07:34;6.40;99.90
19870;DHT22;10097;50.862;4.696;2023-01-15T17:10:03;6.40;99.90
19870;DHT22;10097;50.862;4.696;2023-01-15T17:12:31;6.40;99.90
19870;DHT22;10097;50.862;4.696;2023-01-15T17:17:40;6.50;99.90
19870;DHT22;10097;50.862;4.696;2023-01-15T17:20:11;6.50;99.90
19870;DHT22;10097;50.862;4.696;2023-01-15T17:22:39;6.50;99.90
19870;DHT22;10097;50.862;4.696;2023-01-15T17:25:21;6.50;99.90
19870;DHT22;10097;50.862;4.696;2023-01-15T17:27:48;6.50;99.90
19870;DHT22;10097;50.862;4.696;2023-01-15T17:30:14;6.50;99.90
19870;DHT22;10097;50.862;4.696;2023-01-15T17:32:40;6.60;99.90
19870;DHT22;10097;50.862;4.696;2023-01-15T17:35:24;6.60;99.90
19870;DHT22;10097;50.862;4.696;2023-01-15T17:37:50;6.50;99.90
19870;DHT22;10097;50.862;4.696;2023-01-15T17:40:16;6.60;99.90
19870;DHT22;10097;50.862;4.696;2023-01-15T17:42:42;6.60;99.90
19870;DHT22;10097;50.862;4.696;2023-01-15T17:45:19;6.60;99.90
19870;DHT22;10097;50.862;4.696;2023-01-15T17:47:47;6.60;99.90
19870;DHT22;10097;50.862;4.696;2023-01-15T17:50:16;6.70;99.90
19870;DHT22;10097;50.862;4.696;2023-01-15T17:52:42;6.60;99.90
19870;DHT22;10097;50.862;4.696;2023-01-15T17:55:16;6.50;99.90
19870;DHT22;10097;50.862;4.696;2023-01-15T17:58:00;6.40;99.90
19870;DHT22;10097;50.862;4.696;2023-01-15T18:00:45;6.50;99.90
19870;DHT22;10097;50.862;4.696;2023-01-15T18:03:31;6.50;99.90
19870;DHT22;10097;50.862;4.696;2023-01-15T18:06:16;6.60;99.90
19870;DHT22;10097;50.862;4.696;2023-01-15T18:08:47;6.60;99.90
19870;DHT22;10097;50.862;4.696;2023-01-15T18:11:14;6.60;99.90
19870;DHT22;10097;50.862;4.696;2023-01-15T18:13:40;6.70;99.90
19870;DHT22;10097;50.862;4.696;2023-01-15T18:16:07;6.70;99.90
19870;DHT22;10097;50.862;4.696;2023-01-15T18:18:33;6.80;99.90
19870;DHT22;10097;50.862;4.696;2023-01-15T18:20:59;6.80;99.90
19870;DHT22;10097;50.862;4.696;2023-01-15T18:23:26;6.80;99.90
19870;DHT22;10097;50.862;4.696;2023-01-15T18:25:52;6.90;99.90
19870;DHT22;10097;50.862;4.696;2023-01-15T18:28:18;6.90;99.90